sensor_id;sensor_type;location;lat;lon;timestamp;temperature;humidity
40059;SHT31;25763;49.972;8.568;2023-03-30T00:02:26;13.06;66.28
40059;SHT31;25763;49.972;8.568;2023-03-30T00:04:55;13.11;66.38
40059;SHT31;25763;49.972;8.568;2023-03-30T00:07:27;13.08;66.47
40059;SHT31;25763;49.972;8.568;2023-03-30T00:09:53;13.05;66.44
40059;SHT31;25763;49.972;8.568;2023-03-30T00:12:18;13.06;66.54
40059;SHT31;25763;49.972;8.568;2023-03-30T00:14:44;13.08;66.20
40059;SHT31;25763;49.972;8.568;2023-03-30T00:17:10;13.08;66.31
40059;SHT31;25763;49.972;8.568;2023-03-30T00:19:36;13.11;66.19
40059;SHT31;25763;49.972;8.568;2023-03-30T00:22:07;13.11;66.23
40059;SHT31;25763;49.972;8.568;2023-03-30T00:24:36;13.12;66.18
40059;SHT31;25763;49.972;8.568;2023-03-30T00:27:02;13.16;66.07
40059;SHT31;25763;49.972;8.568;2023-03-30T00:29:28;13.20;65.88
40059;SHT31;25763;49.972;8.568;2023-03-30T00:31:53;13.24;65.76
40059;SHT31;25763;49.972;8.568;2023-03-30T00:34:19;13.34;65.39
40059;SHT31;25763;49.972;8.568;2023-03-30T00:36:44;13.34;65.37
40059;SHT31;25763;49.972;8.568;2023-03-30T00:39:11;13.39;65.24
40059;SHT31;25763;49.972;8.568;2023-03-30T00:41:37;13.37;65.18
40059;SHT31;25763;49.972;8.568;2023-03-30T00:45:00;13.39;65.12
40059;SHT31;25763;49.972;8.568;2023-03-30T00:46:54;13.44;65.19
40059;SHT31;25763;49.972;8.568;2023-03-30T00:49:19;13.41;65.18
40059;SHT31;25763;49.972;8.568;2023-03-30T00:51:46;13.43;65.24
40059;SHT31;25763;49.972;8.568;2023-03-30T00:54:17;13.36;65.37
40059;SHT31;25763;49.972;8.568;2023-03-30T00:56:45;13.34;65.63
40059;SHT31;25763;49.972;8.568;2023-03-30T00:59:11;13.32;65.70
40059;SHT31;25763;49.972;8.568;2023-03-30T01:01:38;13.30;65.85
40059;SHT31;25763;49.972;8.568;2023-03-30T01:04:06;13.26;65.94
40059;SHT31;25763;49.972;8.568;2023-03-30T01:06:33;13.24;65.99
40059;SHT31;25763;49.972;8.568;2023-03-30T01:09:00;13.27;66.10
40059;SHT31;25763;49.972;8.568;2023-03-30T01:11:26;13.27;66.01
40059;SHT31;25763;49.972;8.568;2023-03-30T01:14:03;13.30;65.92
40059;SHT31;25763;49.972;8.568;2023-03-30T01:25:06;13.43;65.76
40059;SHT31;25763;49.972;8.568;2023-03-30T01:39:23;13.51;65.89
40059;SHT31;25763;49.972;8.568;2023-03-30T01:47:01;13.51;65.83
40059;SHT31;25763;49.972;8.568;2023-03-30T01:53:00;13.50;65.93
40059;SHT31;25763;49.972;8.568;2023-03-30T01:55:34;13.50;65.94
40059;SHT31;25763;49.972;8.568;2023-03-30T02:00:26;13.53;66.10
40059;SHT31;25763;49.972;8.568;2023-03-30T02:03:08;13.50;66.03
40059;SHT31;25763;49.972;8.568;2023-03-30T02:05:36;13.50;66.14
40059;SHT31;25763;49.972;8.568;2023-03-30T02:08:06;13.50;65.89
40059;SHT31;25763;49.972;8.568;2023-03-30T02:10:34;13.47;66.24
40059;SHT31;25763;49.972;8.568;2023-03-30T02:13:01;13.44;66.43
40059;SHT31;25763;49.972;8.568;2023-03-30T02:15:35;13.43;66.41
40059;SHT31;25763;49.972;8.568;2023-03-30T02:18:01;13.40;66.54
40059;SHT31;25763;49.972;8.568;2023-03-30T02:20:28;13.36;66.81
40059;SHT31;25763;49.972;8.568;2023-03-30T02:22:54;13.30;66.86
40059;SHT31;25763;49.972;8.568;2023-03-30T02:25:21;13.27;66.90
40059;SHT31;25763;49.972;8.568;2023-03-30T02:27:48;13.26;67.28
40059;SHT31;25763;49.972;8.568;2023-03-30T02:30:14;13.26;67.06
40059;SHT31;25763;49.972;8.568;2023-03-30T02:32:47;13.26;66.92
40059;SHT31;25763;49.972;8.568;2023-03-30T02:35:31;13.32;66.90
40059;SHT31;25763;49.972;8.568;2023-03-30T02:43:33;13.33;66.80
40059;SHT31;25763;49.972;8.568;2023-03-30T02:46:15;13.30;66.80
40059;SHT31;25763;49.972;8.568;2023-03-30T02:49:04;13.29;67.30
40059;SHT31;25763;49.972;8.568;2023-03-30T02:51:35;13.22;67.18
40059;SHT31;25763;49.972;8.568;2023-03-30T02:57:06;13.18;67.52
40059;SHT31;25763;49.972;8.568;2023-03-30T02:59:46;13.12;67.84
40059;SHT31;25763;49.972;8.568;2023-03-30T03:02:51;13.06;68.00
40059;SHT31;25763;49.972;8.568;2023-03-30T03:05:11;13.08;68.01
40059;SHT31;25763;49.972;8.568;2023-03-30T03:07:37;13.09;67.96
40059;SHT31;25763;49.972;8.568;2023-03-30T03:10:04;13.09;68.14
40059;SHT31;25763;49.972;8.568;2023-03-30T03:12:31;13.08;68.50
40059;SHT31;25763;49.972;8.568;2023-03-30T03:14:57;13.08;68.56
40059;SHT31;25763;49.972;8.568;2023-03-30T03:17:22;13.05;68.86
40059;SHT31;25763;49.972;8.568;2023-03-30T03:19:48;13.01;68.94
40059;SHT31;25763;49.972;8.568;2023-03-30T03:22:14;13.04;69.04
40059;SHT31;25763;49.972;8.568;2023-03-30T03:24:39;13.01;69.05
40059;SHT31;25763;49.972;8.568;2023-03-30T03:27:05;13.04;68.93
40059;SHT31;25763;49.972;8.568;2023-03-30T03:29:31;13.08;68.94
40059;SHT31;25763;49.972;8.568;2023-03-30T03:31:56;13.09;69.03
40059;SHT31;25763;49.972;8.568;2023-03-30T03:34:22;13.11;69.15
40059;SHT31;25763;49.972;8.568;2023-03-30T03:36:50;13.14;69.09
40059;SHT31;25763;49.972;8.568;2023-03-30T03:39:17;13.15;69.05
40059;SHT31;25763;49.972;8.568;2023-03-30T03:41:43;13.16;68.85
40059;SHT31;25763;49.972;8.568;2023-03-30T03:44:08;13.15;68.85
40059;SHT31;25763;49.972;8.568;2023-03-30T03:46:34;13.15;68.92
40059;SHT31;25763;49.972;8.568;2023-03-30T03:48:59;13.16;69.16
40059;SHT31;25763;49.972;8.568;2023-03-30T03:51:25;13.18;69.13
40059;SHT31;25763;49.972;8.568;2023-03-30T03:53:50;13.15;69.19
40059;SHT31;25763;49.972;8.568;2023-03-30T03:56:16;13.20;69.17
40059;SHT31;25763;49.972;8.568;2023-03-30T03:58:41;13.22;69.30
40059;SHT31;25763;49.972;8.568;2023-03-30T04:01:07;13.18;69.48
40059;SHT31;25763;49.972;8.568;2023-03-30T04:03:32;13.12;69.58
40059;SHT31;25763;49.972;8.568;2023-03-30T04:05:58;13.16;69.70
40059;SHT31;25763;49.972;8.568;2023-03-30T04:08:24;13.15;69.74
40059;SHT31;25763;49.972;8.568;2023-03-30T04:10:50;13.15;69.62
40059;SHT31;25763;49.972;8.568;2023-03-30T04:13:15;13.18;69.61
40059;SHT31;25763;49.972;8.568;2023-03-30T04:15:40;13.19;69.74
40059;SHT31;25763;49.972;8.568;2023-03-30T04:18:06;13.23;69.79
40059;SHT31;25763;49.972;8.568;2023-03-30T04:20:32;13.24;69.77
40059;SHT31;25763;49.972;8.568;2023-03-30T04:22:58;13.23;69.86
40059;SHT31;25763;49.972;8.568;2023-03-30T04:25:26;13.27;69.89
40059;SHT31;25763;49.972;8.568;2023-03-30T04:27:52;13.29;70.01
40059;SHT31;25763;49.972;8.568;2023-03-30T04:30:18;13.29;70.00
40059;SHT31;25763;49.972;8.568;2023-03-30T04:32:44;13.33;70.19
40059;SHT31;25763;49.972;8.568;2023-03-30T04:35:12;13.34;70.14
40059;SHT31;25763;49.972;8.568;2023-03-30T04:37:39;13.32;70.21
40059;SHT31;25763;49.972;8.568;2023-03-30T04:40:07;13.36;70.59
40059;SHT31;25763;49.972;8.568;2023-03-30T04:42:40;13.37;70.42
40059;SHT31;25763;49.972;8.568;2023-03-30T04:45:07;13.39;70.43
40059;SHT31;25763;49.972;8.568;2023-03-30T04:47:33;13.40;70.66
40059;SHT31;25763;49.972;8.568;2023-03-30T04:49:59;13.39;70.87
40059;SHT31;25763;49.972;8.568;2023-03-30T04:52:25;13.37;71.57
40059;SHT31;25763;49.972;8.568;2023-03-30T04:54:50;13.36;71.84
40059;SHT31;25763;49.972;8.568;2023-03-30T04:57:16;13.37;72.24
40059;SHT31;25763;49.972;8.568;2023-03-30T04:59:43;13.34;73.09
40059;SHT31;25763;49.972;8.568;2023-03-30T05:02:09;13.33;73.58
40059;SHT31;25763;49.972;8.568;2023-03-30T05:04:36;13.34;74.05
40059;SHT31;25763;49.972;8.568;2023-03-30T05:07:01;13.34;74.49
40059;SHT31;25763;49.972;8.568;2023-03-30T05:09:27;13.33;75.06
40059;SHT31;25763;49.972;8.568;2023-03-30T05:11:53;13.30;75.33
40059;SHT31;25763;49.972;8.568;2023-03-30T05:14:18;13.27;75.91
40059;SHT31;25763;49.972;8.568;2023-03-30T05:16:43;13.23;76.08
40059;SHT31;25763;49.972;8.568;2023-03-30T05:19:09;13.20;76.78
40059;SHT31;25763;49.972;8.568;2023-03-30T05:21:34;13.20;76.83
40059;SHT31;25763;49.972;8.568;2023-03-30T05:24:00;13.16;77.90
40059;SHT31;25763;49.972;8.568;2023-03-30T05:26:25;13.08;78.93
40059;SHT31;25763;49.972;8.568;2023-03-30T05:28:52;13.05;79.10
40059;SHT31;25763;49.972;8.568;2023-03-30T05:31:18;13.01;79.55
40059;SHT31;25763;49.972;8.568;2023-03-30T05:33:44;13.02;79.45
40059;SHT31;25763;49.972;8.568;2023-03-30T05:36:09;12.97;79.98
40059;SHT31;25763;49.972;8.568;2023-03-30T05:38:35;12.98;80.20
40059;SHT31;25763;49.972;8.568;2023-03-30T05:41:01;12.94;80.61
40059;SHT31;25763;49.972;8.568;2023-03-30T05:43:27;12.91;80.72
40059;SHT31;25763;49.972;8.568;2023-03-30T05:45:52;12.98;80.91
40059;SHT31;25763;49.972;8.568;2023-03-30T05:48:17;12.89;81.96
40059;SHT31;25763;49.972;8.568;2023-03-30T05:50:46;12.84;82.20
40059;SHT31;25763;49.972;8.568;2023-03-30T05:53:11;12.84;82.43
40059;SHT31;25763;49.972;8.568;2023-03-30T05:55:37;12.82;82.53
40059;SHT31;25763;49.972;8.568;2023-03-30T05:58:02;12.81;82.30
40059;SHT31;25763;49.972;8.568;2023-03-30T06:00:28;12.78;82.81
40059;SHT31;25763;49.972;8.568;2023-03-30T06:02:58;12.75;83.26
40059;SHT31;25763;49.972;8.568;2023-03-30T06:05:23;12.70;83.57
40059;SHT31;25763;49.972;8.568;2023-03-30T06:07:48;12.63;84.01
40059;SHT31;25763;49.972;8.568;2023-03-30T06:10:14;12.60;84.11
40059;SHT31;25763;49.972;8.568;2023-03-30T06:12:40;12.56;84.39
40059;SHT31;25763;49.972;8.568;2023-03-30T06:15:05;12.55;84.78
40059;SHT31;25763;49.972;8.568;2023-03-30T06:17:33;12.53;85.09
40059;SHT31;25763;49.972;8.568;2023-03-30T06:19:59;12.52;85.37
40059;SHT31;25763;49.972;8.568;2023-03-30T06:22:24;12.50;85.64
40059;SHT31;25763;49.972;8.568;2023-03-30T06:24:49;12.52;85.62
40059;SHT31;25763;49.972;8.568;2023-03-30T06:27:15;12.55;85.71
40059;SHT31;25763;49.972;8.568;2023-03-30T06:29:41;12.57;85.86
40059;SHT31;25763;49.972;8.568;2023-03-30T06:32:06;12.60;85.82
40059;SHT31;25763;49.972;8.568;2023-03-30T06:34:32;12.63;85.82
40059;SHT31;25763;49.972;8.568;2023-03-30T06:36:57;12.63;85.64
40059;SHT31;25763;49.972;8.568;2023-03-30T06:39:22;12.67;85.67
40059;SHT31;25763;49.972;8.568;2023-03-30T06:41:48;12.68;85.60
40059;SHT31;25763;49.972;8.568;2023-03-30T06:44:14;12.67;85.87
40059;SHT31;25763;49.972;8.568;2023-03-30T06:46:40;12.65;85.93
40059;SHT31;25763;49.972;8.568;2023-03-30T06:49:06;12.71;85.60
40059;SHT31;25763;49.972;8.568;2023-03-30T06:51:32;12.74;85.50
40059;SHT31;25763;49.972;8.568;2023-03-30T06:54:00;12.80;85.33
40059;SHT31;25763;49.972;8.568;2023-03-30T06:56:25;12.78;85.52
40059;SHT31;25763;49.972;8.568;2023-03-30T06:58:51;12.80;85.59
40059;SHT31;25763;49.972;8.568;2023-03-30T07:01:17;12.82;85.41
40059;SHT31;25763;49.972;8.568;2023-03-30T07:03:43;12.77;85.47
40059;SHT31;25763;49.972;8.568;2023-03-30T07:06:08;12.77;85.67
40059;SHT31;25763;49.972;8.568;2023-03-30T07:08:35;12.78;85.44
40059;SHT31;25763;49.972;8.568;2023-03-30T07:11:02;12.80;85.60
40059;SHT31;25763;49.972;8.568;2023-03-30T07:13:28;12.84;85.64
40059;SHT31;25763;49.972;8.568;2023-03-30T07:15:53;12.91;85.45
40059;SHT31;25763;49.972;8.568;2023-03-30T07:18:19;12.95;85.30
40059;SHT31;25763;49.972;8.568;2023-03-30T07:20:44;12.95;85.32
40059;SHT31;25763;49.972;8.568;2023-03-30T07:23:11;12.98;85.20
40059;SHT31;25763;49.972;8.568;2023-03-30T07:25:37;13.01;84.81
40059;SHT31;25763;49.972;8.568;2023-03-30T07:28:03;13.05;84.58
40059;SHT31;25763;49.972;8.568;2023-03-30T07:30:31;13.04;84.39
40059;SHT31;25763;49.972;8.568;2023-03-30T07:32:57;13.02;84.13
40059;SHT31;25763;49.972;8.568;2023-03-30T07:35:22;13.08;84.10
40059;SHT31;25763;49.972;8.568;2023-03-30T07:37:48;13.08;84.34
40059;SHT31;25763;49.972;8.568;2023-03-30T07:40:13;13.02;84.46
40059;SHT31;25763;49.972;8.568;2023-03-30T07:42:40;13.02;84.32
40059;SHT31;25763;49.972;8.568;2023-03-30T07:45:06;12.99;84.41
40059;SHT31;25763;49.972;8.568;2023-03-30T07:47:32;13.08;84.34
40059;SHT31;25763;49.972;8.568;2023-03-30T07:49:57;13.05;84.04
40059;SHT31;25763;49.972;8.568;2023-03-30T07:52:23;13.06;83.94
40059;SHT31;25763;49.972;8.568;2023-03-30T07:54:48;13.08;83.88
40059;SHT31;25763;49.972;8.568;2023-03-30T07:57:13;13.05;83.66
40059;SHT31;25763;49.972;8.568;2023-03-30T07:59:39;13.06;83.43
40059;SHT31;25763;49.972;8.568;2023-03-30T08:02:05;13.11;83.36
40059;SHT31;25763;49.972;8.568;2023-03-30T08:04:31;13.08;83.40
40059;SHT31;25763;49.972;8.568;2023-03-30T08:06:56;13.11;83.07
40059;SHT31;25763;49.972;8.568;2023-03-30T08:09:22;13.09;83.34
40059;SHT31;25763;49.972;8.568;2023-03-30T08:11:47;13.12;83.49
40059;SHT31;25763;49.972;8.568;2023-03-30T08:14:13;13.09;83.31
40059;SHT31;25763;49.972;8.568;2023-03-30T08:16:38;13.09;83.19
40059;SHT31;25763;49.972;8.568;2023-03-30T08:19:04;13.15;83.24
40059;SHT31;25763;49.972;8.568;2023-03-30T08:21:29;13.22;82.93
40059;SHT31;25763;49.972;8.568;2023-03-30T08:23:55;13.23;82.86
40059;SHT31;25763;49.972;8.568;2023-03-30T08:26:23;13.22;82.95
40059;SHT31;25763;49.972;8.568;2023-03-30T08:28:48;13.23;82.81
40059;SHT31;25763;49.972;8.568;2023-03-30T08:31:14;13.27;82.76
40059;SHT31;25763;49.972;8.568;2023-03-30T08:33:42;13.34;82.62
40059;SHT31;25763;49.972;8.568;2023-03-30T08:36:08;13.40;82.36
40059;SHT31;25763;49.972;8.568;2023-03-30T08:38:34;13.39;82.40
40059;SHT31;25763;49.972;8.568;2023-03-30T08:40:59;13.33;82.34
40059;SHT31;25763;49.972;8.568;2023-03-30T08:43:46;13.40;82.45
40059;SHT31;25763;49.972;8.568;2023-03-30T08:46:14;13.53;82.04
40059;SHT31;25763;49.972;8.568;2023-03-30T08:48:41;13.62;81.92
40059;SHT31;25763;49.972;8.568;2023-03-30T08:51:24;13.70;81.46
40059;SHT31;25763;49.972;8.568;2023-03-30T08:53:57;13.78;81.47
40059;SHT31;25763;49.972;8.568;2023-03-30T08:56:31;13.83;81.26
40059;SHT31;25763;49.972;8.568;2023-03-30T09:02:01;13.81;81.19
40059;SHT31;25763;49.972;8.568;2023-03-30T09:04:36;13.82;81.09
40059;SHT31;25763;49.972;8.568;2023-03-30T09:09:36;13.74;81.00
40059;SHT31;25763;49.972;8.568;2023-03-30T09:12:07;13.65;81.33
40059;SHT31;25763;49.972;8.568;2023-03-30T09:14:50;13.68;81.27
40059;SHT31;25763;49.972;8.568;2023-03-30T09:17:40;13.73;81.17
40059;SHT31;25763;49.972;8.568;2023-03-30T09:20:30;13.78;81.23
40059;SHT31;25763;49.972;8.568;2023-03-30T09:22:59;13.89;81.02
40059;SHT31;25763;49.972;8.568;2023-03-30T09:28:23;14.10;80.51
40059;SHT31;25763;49.972;8.568;2023-03-30T09:30:55;14.05;80.89
40059;SHT31;25763;49.972;8.568;2023-03-30T09:38:36;14.06;81.43
40059;SHT31;25763;49.972;8.568;2023-03-30T09:41:10;14.10;81.21
40059;SHT31;25763;49.972;8.568;2023-03-30T09:43:42;14.05;81.34
40059;SHT31;25763;49.972;8.568;2023-03-30T09:46:11;14.00;81.47
40059;SHT31;25763;49.972;8.568;2023-03-30T09:48:48;14.02;81.53
40059;SHT31;25763;49.972;8.568;2023-03-30T09:51:17;14.00;81.29
40059;SHT31;25763;49.972;8.568;2023-03-30T09:53:44;13.92;81.15
40059;SHT31;25763;49.972;8.568;2023-03-30T09:56:39;13.96;81.32
40059;SHT31;25763;49.972;8.568;2023-03-30T09:59:24;13.96;81.19
40059;SHT31;25763;49.972;8.568;2023-03-30T10:01:52;14.03;81.10
40059;SHT31;25763;49.972;8.568;2023-03-30T10:04:32;14.06;81.07
40059;SHT31;25763;49.972;8.568;2023-03-30T10:06:57;14.10;81.08
40059;SHT31;25763;49.972;8.568;2023-03-30T10:09:23;14.16;80.83
40059;SHT31;25763;49.972;8.568;2023-03-30T10:11:50;14.18;80.86
40059;SHT31;25763;49.972;8.568;2023-03-30T10:16:50;14.16;80.96
40059;SHT31;25763;49.972;8.568;2023-03-30T10:19:19;14.30;81.13
40059;SHT31;25763;49.972;8.568;2023-03-30T10:21:46;14.55;79.94
40059;SHT31;25763;49.972;8.568;2023-03-30T10:26:37;14.93;76.97
40059;SHT31;25763;49.972;8.568;2023-03-30T10:29:05;15.10;76.18
40059;SHT31;25763;49.972;8.568;2023-03-30T10:31:36;15.24;75.19
40059;SHT31;25763;49.972;8.568;2023-03-30T10:34:02;15.38;74.53
40059;SHT31;25763;49.972;8.568;2023-03-30T10:36:36;15.48;73.95
40059;SHT31;25763;49.972;8.568;2023-03-30T10:39:20;15.53;72.55
40059;SHT31;25763;49.972;8.568;2023-03-30T10:41:47;15.67;72.48
40059;SHT31;25763;49.972;8.568;2023-03-30T10:44:21;16.07;71.29
40059;SHT31;25763;49.972;8.568;2023-03-30T10:46:50;16.07;70.29
40059;SHT31;25763;49.972;8.568;2023-03-30T10:52:08;16.52;70.24
40059;SHT31;25763;49.972;8.568;2023-03-30T10:54:40;16.35;69.02
40059;SHT31;25763;49.972;8.568;2023-03-30T10:57:13;16.52;69.36
40059;SHT31;25763;49.972;8.568;2023-03-30T11:02:45;16.53;68.43
40059;SHT31;25763;49.972;8.568;2023-03-30T11:08:01;16.67;68.29
40059;SHT31;25763;49.972;8.568;2023-03-30T11:10:30;16.70;67.66
40059;SHT31;25763;49.972;8.568;2023-03-30T11:13:12;17.27;66.41
40059;SHT31;25763;49.972;8.568;2023-03-30T11:15:45;17.75;65.93
40059;SHT31;25763;49.972;8.568;2023-03-30T11:21:11;17.95;64.43
40059;SHT31;25763;49.972;8.568;2023-03-30T11:23:50;17.65;64.01
40059;SHT31;25763;49.972;8.568;2023-03-30T11:26:21;17.75;63.99
40059;SHT31;25763;49.972;8.568;2023-03-30T11:32:17;17.64;63.09
40059;SHT31;25763;49.972;8.568;2023-03-30T11:35:16;17.64;62.48
40059;SHT31;25763;49.972;8.568;2023-03-30T11:38:00;18.05;62.66
40059;SHT31;25763;49.972;8.568;2023-03-30T11:40:45;18.09;61.85
40059;SHT31;25763;49.972;8.568;2023-03-30T11:43:15;18.12;61.70
40059;SHT31;25763;49.972;8.568;2023-03-30T11:53:52;17.84;62.39
40059;SHT31;25763;49.972;8.568;2023-03-30T11:56:44;17.71;64.37
40059;SHT31;25763;49.972;8.568;2023-03-30T12:04:40;18.57;60.29
40059;SHT31;25763;49.972;8.568;2023-03-30T12:07:20;18.75;59.06
40059;SHT31;25763;49.972;8.568;2023-03-30T12:09:55;19.20;58.19
40059;SHT31;25763;49.972;8.568;2023-03-30T12:12:30;19.06;55.99
40059;SHT31;25763;49.972;8.568;2023-03-30T12:15:02;19.02;55.94
40059;SHT31;25763;49.972;8.568;2023-03-30T12:17:40;18.73;55.69
40059;SHT31;25763;49.972;8.568;2023-03-30T12:20:20;18.57;56.55
40059;SHT31;25763;49.972;8.568;2023-03-30T12:23:12;18.33;57.18
40059;SHT31;25763;49.972;8.568;2023-03-30T12:26:06;18.61;55.57
40059;SHT31;25763;49.972;8.568;2023-03-30T12:28:57;17.99;55.73
40059;SHT31;25763;49.972;8.568;2023-03-30T12:34:14;17.79;56.30
40059;SHT31;25763;49.972;8.568;2023-03-30T12:36:41;18.23;55.35
40059;SHT31;25763;49.972;8.568;2023-03-30T12:39:27;18.76;54.61
40059;SHT31;25763;49.972;8.568;2023-03-30T12:54:07;18.00;55.06
40059;SHT31;25763;49.972;8.568;2023-03-30T12:56:58;17.67;53.99
40059;SHT31;25763;49.972;8.568;2023-03-30T13:05:29;17.49;55.66
40059;SHT31;25763;49.972;8.568;2023-03-30T13:08:02;17.09;57.60
40059;SHT31;25763;49.972;8.568;2023-03-30T13:12:58;16.68;65.69
40059;SHT31;25763;49.972;8.568;2023-03-30T13:20:20;17.25;60.19
40059;SHT31;25763;49.972;8.568;2023-03-30T13:26:03;16.39;60.30
40059;SHT31;25763;49.972;8.568;2023-03-30T13:28:32;16.26;61.12
40059;SHT31;25763;49.972;8.568;2023-03-30T13:31:08;16.14;61.47
40059;SHT31;25763;49.972;8.568;2023-03-30T13:33:38;15.80;64.05
40059;SHT31;25763;49.972;8.568;2023-03-30T13:36:13;14.99;70.72
40059;SHT31;25763;49.972;8.568;2023-03-30T13:39:02;15.17;72.31
40059;SHT31;25763;49.972;8.568;2023-03-30T13:47:22;15.65;72.67
40059;SHT31;25763;49.972;8.568;2023-03-30T13:49:57;15.49;70.04
40059;SHT31;25763;49.972;8.568;2023-03-30T13:52:32;15.55;70.67
40059;SHT31;25763;49.972;8.568;2023-03-30T13:54:59;15.44;70.41
40059;SHT31;25763;49.972;8.568;2023-03-30T13:57:33;15.20;71.48
40059;SHT31;25763;49.972;8.568;2023-03-30T14:00:20;15.18;71.48
40059;SHT31;25763;49.972;8.568;2023-03-30T14:02:47;15.22;72.20
40059;SHT31;25763;49.972;8.568;2023-03-30T14:05:21;15.18;72.76
40059;SHT31;25763;49.972;8.568;2023-03-30T14:07:48;15.08;73.63
40059;SHT31;25763;49.972;8.568;2023-03-30T14:10:19;14.92;74.56
40059;SHT31;25763;49.972;8.568;2023-03-30T14:12:48;14.69;74.82
40059;SHT31;25763;49.972;8.568;2023-03-30T14:17:52;14.44;74.71
40059;SHT31;25763;49.972;8.568;2023-03-30T14:23:02;14.51;75.59
40059;SHT31;25763;49.972;8.568;2023-03-30T14:25:33;14.51;75.31
40059;SHT31;25763;49.972;8.568;2023-03-30T14:28:09;14.40;74.89
40059;SHT31;25763;49.972;8.568;2023-03-30T14:30:36;14.48;75.71
40059;SHT31;25763;49.972;8.568;2023-03-30T14:33:07;14.48;75.68
40059;SHT31;25763;49.972;8.568;2023-03-30T14:35:36;14.52;75.51
40059;SHT31;25763;49.972;8.568;2023-03-30T14:38:02;14.37;76.04
40059;SHT31;25763;49.972;8.568;2023-03-30T14:40:27;14.14;76.59
40059;SHT31;25763;49.972;8.568;2023-03-30T14:42:53;14.06;77.71
40059;SHT31;25763;49.972;8.568;2023-03-30T14:45:18;14.02;78.37
40059;SHT31;25763;49.972;8.568;2023-03-30T14:47:47;14.00;75.62
40059;SHT31;25763;49.972;8.568;2023-03-30T14:50:15;14.05;75.68
40059;SHT31;25763;49.972;8.568;2023-03-30T14:52:43;14.17;75.74
40059;SHT31;25763;49.972;8.568;2023-03-30T14:55:21;14.77;75.41
40059;SHT31;25763;49.972;8.568;2023-03-30T14:57:48;15.34;74.61
40059;SHT31;25763;49.972;8.568;2023-03-30T15:00:16;15.41;73.92
40059;SHT31;25763;49.972;8.568;2023-03-30T15:02:45;15.28;73.71
40059;SHT31;25763;49.972;8.568;2023-03-30T15:05:15;15.22;73.39
40059;SHT31;25763;49.972;8.568;2023-03-30T15:07:41;14.94;73.34
40059;SHT31;25763;49.972;8.568;2023-03-30T15:10:23;14.80;73.33
40059;SHT31;25763;49.972;8.568;2023-03-30T15:12:51;14.52;73.05
40059;SHT31;25763;49.972;8.568;2023-03-30T15:15:21;14.48;74.15
40059;SHT31;25763;49.972;8.568;2023-03-30T15:17:49;14.35;73.98
40059;SHT31;25763;49.972;8.568;2023-03-30T15:20:15;14.24;74.51
40059;SHT31;25763;49.972;8.568;2023-03-30T15:22:47;14.26;74.78
40059;SHT31;25763;49.972;8.568;2023-03-30T15:25:40;14.20;74.63
40059;SHT31;25763;49.972;8.568;2023-03-30T15:28:15;14.16;74.49
40059;SHT31;25763;49.972;8.568;2023-03-30T15:30:50;14.31;74.82
40059;SHT31;25763;49.972;8.568;2023-03-30T15:33:39;14.42;74.98
40059;SHT31;25763;49.972;8.568;2023-03-30T15:36:11;14.48;74.00
40059;SHT31;25763;49.972;8.568;2023-03-30T15:41:14;14.47;74.43
40059;SHT31;25763;49.972;8.568;2023-03-30T15:43:57;14.41;74.43
40059;SHT31;25763;49.972;8.568;2023-03-30T15:46:24;14.35;74.65
40059;SHT31;25763;49.972;8.568;2023-03-30T15:48:52;14.28;74.56
40059;SHT31;25763;49.972;8.568;2023-03-30T15:55:01;14.34;74.49
40059;SHT31;25763;49.972;8.568;2023-03-30T15:57:16;14.33;75.27
40059;SHT31;25763;49.972;8.568;2023-03-30T15:59:45;14.20;75.35
40059;SHT31;25763;49.972;8.568;2023-03-30T16:04:43;14.31;74.47
40059;SHT31;25763;49.972;8.568;2023-03-30T16:07:17;14.38;74.26
40059;SHT31;25763;49.972;8.568;2023-03-30T16:09:43;14.31;74.03
40059;SHT31;25763;49.972;8.568;2023-03-30T16:12:12;14.24;74.28
40059;SHT31;25763;49.972;8.568;2023-03-30T16:14:38;14.09;73.17
40059;SHT31;25763;49.972;8.568;2023-03-30T16:17:03;14.06;73.91
40059;SHT31;25763;49.972;8.568;2023-03-30T16:19:28;14.02;73.80
40059;SHT31;25763;49.972;8.568;2023-03-30T16:21:54;13.96;73.88
40059;SHT31;25763;49.972;8.568;2023-03-30T16:24:20;13.95;73.57
40059;SHT31;25763;49.972;8.568;2023-03-30T16:26:45;13.93;74.67
40059;SHT31;25763;49.972;8.568;2023-03-30T16:29:18;13.96;74.16
40059;SHT31;25763;49.972;8.568;2023-03-30T16:31:44;14.05;73.85
40059;SHT31;25763;49.972;8.568;2023-03-30T16:34:10;14.12;73.52
40059;SHT31;25763;49.972;8.568;2023-03-30T16:36:35;14.24;73.08
40059;SHT31;25763;49.972;8.568;2023-03-30T16:39:00;14.40;71.96
40059;SHT31;25763;49.972;8.568;2023-03-30T16:41:26;14.52;72.70
40059;SHT31;25763;49.972;8.568;2023-03-30T16:43:51;14.57;72.71
40059;SHT31;25763;49.972;8.568;2023-03-30T16:46:18;14.57;71.65
40059;SHT31;25763;49.972;8.568;2023-03-30T16:48:44;14.51;71.56
40059;SHT31;25763;49.972;8.568;2023-03-30T16:51:11;14.45;72.20
40059;SHT31;25763;49.972;8.568;2023-03-30T16:53:38;14.38;72.09
40059;SHT31;25763;49.972;8.568;2023-03-30T16:56:03;14.31;72.78
40059;SHT31;25763;49.972;8.568;2023-03-30T16:58:29;14.30;71.93
40059;SHT31;25763;49.972;8.568;2023-03-30T17:00:55;14.27;72.28
40059;SHT31;25763;49.972;8.568;2023-03-30T17:03:27;14.23;72.46
40059;SHT31;25763;49.972;8.568;2023-03-30T17:05:53;14.18;72.01
40059;SHT31;25763;49.972;8.568;2023-03-30T17:08:27;14.12;72.32
40059;SHT31;25763;49.972;8.568;2023-03-30T17:10:55;14.12;72.51
40059;SHT31;25763;49.972;8.568;2023-03-30T17:13:21;14.09;72.67
40059;SHT31;25763;49.972;8.568;2023-03-30T17:15:48;14.02;72.93
40059;SHT31;25763;49.972;8.568;2023-03-30T17:18:22;13.95;73.06
40059;SHT31;25763;49.972;8.568;2023-03-30T17:20:50;13.91;73.65
40059;SHT31;25763;49.972;8.568;2023-03-30T17:23:17;13.81;73.77
40059;SHT31;25763;49.972;8.568;2023-03-30T17:25:42;13.77;73.71
40059;SHT31;25763;49.972;8.568;2023-03-30T17:30:51;13.71;73.07
40059;SHT31;25763;49.972;8.568;2023-03-30T17:33:17;13.73;72.59
40059;SHT31;25763;49.972;8.568;2023-03-30T17:35:45;13.74;72.35
40059;SHT31;25763;49.972;8.568;2023-03-30T17:38:13;13.70;72.36
40059;SHT31;25763;49.972;8.568;2023-03-30T17:40:38;13.68;72.05
40059;SHT31;25763;49.972;8.568;2023-03-30T17:43:07;13.67;72.26
40059;SHT31;25763;49.972;8.568;2023-03-30T17:45:33;13.64;72.08
40059;SHT31;25763;49.972;8.568;2023-03-30T17:48:00;13.64;71.70
40059;SHT31;25763;49.972;8.568;2023-03-30T17:50:31;13.70;70.98
40059;SHT31;25763;49.972;8.568;2023-03-30T17:52:57;13.70;71.15
40059;SHT31;25763;49.972;8.568;2023-03-30T17:55:25;13.68;70.42
40059;SHT31;25763;49.972;8.568;2023-03-30T17:57:51;13.67;70.54
40059;SHT31;25763;49.972;8.568;2023-03-30T18:00:30;13.61;70.52
40059;SHT31;25763;49.972;8.568;2023-03-30T18:02:56;13.59;70.10
40059;SHT31;25763;49.972;8.568;2023-03-30T18:05:27;13.55;70.14